Chibougamau Airport (YMT/CYMT)

Map

Destinations

Information

Location
Chibougamau, Quebec, Canada
Local Time
19:23 / 7:23 pm
GMT Time
00:23 / 12:23 am
Gates
Unassigned
No FAA reported delays
METAR CYMT 230000Z AUTO 18007KT 9SM -RA BKN032 OVC042 01/01 A2968 RMK SLP070
TAF TAF AMD CYMT 222103Z 2221/2301 18008KT 6SM -RA BR SCT008 OVC020 TEMPO 2221/2301 P6SM -RA FEW020 OVC060 PROB40 2223/2301 OVC006 RMK FCST BASED ON AUTO OBS. NXT FCST WILL BE ISSUED AT 231245Z
  • No charts available